Time;durP1;ratioP1;P1;durP2;ratioP2;P2;SDS_P1;SDS_P2;PMS_P1;PMS_P2;Temp;Humidity;BMP_temperature;BMP_pressure;BME280_temperature;BME280_humidity;BME280_pressure;Samples;Min_cycle;Max_cycle;Signal;HPM_P1;HPM_P2
2023/08/25 00:02:16;;;;;;;4.80;3.13;;;;;;;28.69;42.16;100675.81;5024720;27;98756;-66
2023/08/25 00:04:44;;;;;;;5.32;3.22;;;;;;;28.74;42.22;100667.16;5029373;27;96909;-66
2023/08/25 00:07:10;;;;;;;6.88;3.67;;;;;;;28.76;42.05;100665.97;5021613;27;98729;-66
2023/08/25 00:09:37;;;;;;;4.30;3.45;;;;;;;28.81;42.17;100655.47;5022129;27;101786;-66
2023/08/25 00:12:04;;;;;;;5.20;3.30;;;;;;;28.88;41.50;100631.13;5027821;27;99296;-65
2023/08/25 00:14:32;;;;;;;5.28;3.35;;;;;;;28.91;41.59;100618.00;5025098;27;97132;-66
2023/08/25 00:16:58;;;;;;;5.07;3.30;;;;;;;28.67;42.11;100626.22;5025466;27;97870;-66
2023/08/25 00:19:24;;;;;;;6.57;3.63;;;;;;;28.69;41.66;100634.19;5028159;27;97536;-65
2023/08/25 00:21:51;;;;;;;3.65;3.03;;;;;;;28.62;41.59;100625.88;5022845;27;99333;-65
2023/08/25 00:24:17;;;;;;;5.88;3.35;;;;;;;28.49;41.60;100623.69;5023279;27;97265;-65
2023/08/25 00:26:44;;;;;;;7.43;3.83;;;;;;;28.61;41.49;100621.50;5031092;27;96934;-65
2023/08/25 00:29:10;;;;;;;6.95;3.22;;;;;;;28.47;41.72;100616.75;5029451;27;99042;-65
2023/08/25 00:31:38;;;;;;;6.05;3.20;;;;;;;28.45;41.48;100624.22;5024638;27;99204;-65
2023/08/25 00:34:05;;;;;;;5.53;3.50;;;;;;;28.70;41.21;100623.16;5021144;27;96894;-65
2023/08/25 00:36:31;;;;;;;5.35;4.07;;;;;;;28.57;41.86;100620.13;5026707;27;96933;-65
2023/08/25 00:38:58;;;;;;;5.40;2.90;;;;;;;28.36;42.17;100614.38;5016094;27;99129;-65
2023/08/25 00:41:24;;;;;;;4.68;2.97;;;;;;;28.57;41.90;100619.28;5023375;27;99449;-65
2023/08/25 00:43:50;;;;;;;8.93;3.35;;;;;;;28.51;42.00;100612.66;5023934;27;96799;-65
2023/08/25 00:46:19;;;;;;;6.00;3.60;;;;;;;28.42;42.24;100602.84;5020424;27;96808;-65
2023/08/25 00:48:47;;;;;;;5.22;3.22;;;;;;;28.34;42.37;100605.56;5030583;27;98859;-64
2023/08/25 00:51:14;;;;;;;4.45;3.17;;;;;;;28.55;42.26;100611.31;5027987;27;98885;-65
2023/08/25 00:53:41;;;;;;;8.73;3.35;;;;;;;28.54;42.19;100596.88;5025824;27;96863;-65
2023/08/25 00:56:09;;;;;;;7.18;3.72;;;;;;;28.52;42.04;100614.38;5025808;27;96814;-65
2023/08/25 00:58:36;;;;;;;5.15;3.20;;;;;;;28.53;42.29;100607.91;5023294;27;98949;-66
2023/08/25 01:01:05;;;;;;;5.07;3.58;;;;;;;28.38;42.52;100606.91;5024401;27;101281;-65
2023/08/25 01:03:31;;;;;;;4.10;3.00;;;;;;;28.30;42.49;100604.19;5023215;27;96877;-65
2023/08/25 01:05:59;;;;;;;3.65;2.95;;;;;;;28.55;42.95;100608.59;5025998;27;96897;-65
2023/08/25 01:08:26;;;;;;;5.80;3.00;;;;;;;28.62;42.69;100606.84;5022317;27;101872;-65
2023/08/25 01:10:59;;;;;;;5.95;3.75;;;;;;;28.48;42.29;100594.00;5023641;27;98818;-66
2023/08/25 01:13:31;;;;;;;7.53;3.03;;;;;;;28.56;42.24;100583.09;5021266;27;96848;-65
2023/08/25 01:15:58;;;;;;;4.70;3.33;;;;;;;28.66;42.48;100581.03;5028132;27;96871;-65
2023/08/25 01:18:29;;;;;;;9.50;3.40;;;;;;;28.57;42.95;100568.47;5022663;27;98900;-66
2023/08/25 01:20:57;;;;;;;6.53;3.65;;;;;;;28.71;42.54;100558.75;5025937;27;97788;-66
2023/08/25 01:23:33;;;;;;;7.28;2.97;;;;;;;28.47;42.71;100556.97;5023196;27;97685;-65
2023/08/25 01:26:01;;;;;;;;;;;;;;;28.29;43.05;100543.56;5027068;27;96934;-65
2023/08/25 01:28:28;;;;;;;8.90;3.60;;;;;;;28.09;43.72;100544.97;5024910;27;99309;-65
2023/08/25 01:30:56;;;;;;;8.18;3.40;;;;;;;27.91;44.44;100523.41;5026515;27;98999;-64
2023/08/25 01:33:23;;;;;;;6.78;3.45;;;;;;;27.89;44.45;100514.63;5023796;27;96927;-66
2023/08/25 01:36:02;;;;;;;6.32;3.08;;;;;;;27.77;44.71;100510.53;5024052;27;96776;-67
2023/08/25 01:38:34;;;;;;;7.05;3.35;;;;;;;27.55;45.54;100508.53;5022525;27;100639;-65
2023/08/25 01:41:08;;;;;;;5.22;3.78;;;;;;;27.71;45.29;100503.06;5023551;27;101446;-65
2023/08/25 01:43:39;;;;;;;6.35;3.83;;;;;;;27.84;45.01;100508.81;5027462;27;97059;-65
2023/08/25 01:46:10;;;;;;;7.72;3.17;;;;;;;27.82;44.98;100519.03;5025328;27;97907;-65
2023/08/25 01:48:38;;;;;;;4.82;3.30;;;;;;;28.03;44.99;100532.91;5025167;27;99006;-65
2023/08/25 01:51:05;;;;;;;8.30;3.45;;;;;;;28.00;44.94;100532.41;5019078;27;99192;-65
2023/08/25 01:53:33;;;;;;;7.68;3.67;;;;;;;28.00;45.10;100522.41;5029785;27;97988;-65
2023/08/25 01:55:59;;;;;;;8.32;3.33;;;;;;;27.86;45.53;100528.53;5027826;27;97643;-65
2023/08/25 01:58:28;;;;;;;9.13;3.55;;;;;;;27.79;45.68;100523.94;5026092;27;99167;-66
2023/08/25 02:00:55;;;;;;;7.20;3.47;;;;;;;27.74;46.14;100519.03;5023092;27;98863;-64
2023/08/25 02:03:21;;;;;;;7.38;3.78;;;;;;;27.92;46.00;100530.56;5020022;27;96826;-65
2023/08/25 02:05:47;;;;;;;7.20;3.80;;;;;;;27.85;45.99;100520.53;5026786;27;97218;-65
2023/08/25 02:08:14;;;;;;;9.70;4.60;;;;;;;27.80;46.25;100521.06;5029923;27;99307;-65
2023/08/25 02:10:40;;;;;;;5.95;3.58;;;;;;;27.92;45.90;100516.97;5028713;27;101275;-65
2023/08/25 02:13:07;;;;;;;4.90;3.97;;;;;;;27.61;46.88;100505.97;5028366;27;96956;-65
2023/08/25 02:15:36;;;;;;;5.28;3.72;;;;;;;27.80;46.51;100501.22;5028271;27;97218;-64
2023/08/25 02:18:04;;;;;;;5.03;3.20;;;;;;;27.81;46.78;100506.47;5026485;27;98919;-65
2023/08/25 02:20:31;;;;;;;7.72;4.03;;;;;;;27.83;46.80;100504.41;5027023;27;99228;-66
2023/08/25 02:22:57;;;;;;;7.55;4.10;;;;;;;27.80;46.75;100504.78;5028816;27;97578;-66
2023/08/25 02:25:23;;;;;;;7.43;4.10;;;;;;;27.86;46.72;100504.09;5025265;27;97823;-66
2023/08/25 02:27:50;;;;;;;5.00;3.20;;;;;;;27.81;47.15;100498.34;5028511;27;97608;-65
2023/08/25 02:30:16;;;;;;;9.75;4.28;;;;;;;27.88;46.71;100502.06;5026017;27;99046;-66
2023/08/25 02:32:44;;;;;;;4.40;3.45;;;;;;;27.73;47.11;100498.34;5023439;27;99233;-66
2023/08/25 02:35:10;;;;;;;10.88;4.10;;;;;;;27.90;47.12;100496.44;5027428;27;96981;-66
2023/08/25 02:37:58;;;;;;;13.13;4.90;;;;;;;28.00;46.89;100489.81;5026020;27;99243;-66
2023/08/25 02:40:25;;;;;;;6.15;3.80;;;;;;;27.99;47.41;100492.69;5020467;27;98794;-66
2023/08/25 02:42:52;;;;;;;11.85;4.00;;;;;;;28.20;46.74;100490.31;5019902;27;97109;-65
2023/08/25 02:46:03;;;;;;;7.72;3.50;;;;;;;28.12;46.84;100483.00;5021364;27;97474;-65
2023/08/25 02:48:31;;;;;;;3.65;3.28;;;;;;;28.01;47.29;100477.09;5029381;27;99048;-66
2023/08/25 02:50:58;;;;;;;8.80;3.78;;;;;;;27.84;47.70;100476.25;5023018;27;97802;-66
2023/08/25 02:53:24;;;;;;;7.50;4.03;;;;;;;27.83;47.93;100479.97;5027977;27;96808;-66
2023/08/25 02:55:51;;;;;;;8.30;3.90;;;;;;;27.96;47.63;100472.16;5030033;27;98783;-65
2023/08/25 02:58:18;;;;;;;7.80;3.78;;;;;;;27.78;48.38;100468.78;5025036;27;97799;-67
2023/08/25 03:00:44;;;;;;;5.43;3.50;;;;;;;27.54;49.68;100471.53;5030521;27;98770;-66
2023/08/25 03:03:11;;;;;;;4.85;3.47;;;;;;;27.75;49.37;100470.00;5027487;27;97783;-64
2023/08/25 03:05:39;;;;;;;6.43;3.80;;;;;;;27.69;49.79;100472.56;5026299;27;101854;-64
2023/08/25 03:08:11;;;;;;;6.43;3.78;;;;;;;27.63;50.05;100471.38;5027290;27;101480;-65
2023/08/25 03:10:38;;;;;;;6.80;3.72;;;;;;;27.56;50.63;100469.50;5021755;27;101146;-64
2023/08/25 03:13:04;;;;;;;4.63;3.53;;;;;;;27.55;50.44;100470.53;5029508;27;96703;-65
2023/08/25 03:15:30;;;;;;;5.40;4.13;;;;;;;27.42;51.03;100481.88;5025437;27;97234;-64
2023/08/25 03:17:57;;;;;;;4.15;3.67;;;;;;;27.48;51.07;100483.03;5029543;27;99845;-65
2023/08/25 03:20:23;;;;;;;5.75;3.70;;;;;;;27.35;51.41;100476.25;5031543;27;99603;-64
2023/08/25 03:22:52;;;;;;;4.63;3.72;;;;;;;27.43;51.58;100478.13;5024549;27;96854;-65
2023/08/25 03:25:18;;;;;;;6.60;3.90;;;;;;;27.46;51.38;100480.50;5026471;27;97445;-65
2023/08/25 03:27:45;;;;;;;6.07;3.70;;;;;;;27.58;51.01;100481.88;5027480;27;98946;-65
2023/08/25 03:30:12;;;;;;;7.63;3.90;;;;;;;27.73;50.34;100477.47;5027776;27;101358;-64
2023/08/25 03:32:38;;;;;;;9.27;4.03;;;;;;;27.81;50.30;100479.31;5027407;27;96867;-65
2023/08/25 03:35:05;;;;;;;8.52;3.83;;;;;;;27.64;50.72;100474.91;5029010;27;97355;-65
2023/08/25 03:37:32;;;;;;;7.70;4.30;;;;;;;27.63;50.69;100479.53;5020818;27;101003;-65
2023/08/25 03:40:00;;;;;;;10.52;4.53;;;;;;;27.43;51.49;100480.00;5027992;27;98791;-65
2023/08/25 03:42:26;;;;;;;7.95;4.47;;;;;;;27.55;50.69;100474.09;5028039;27;97226;-66
2023/08/25 03:44:53;;;;;;;12.00;4.57;;;;;;;27.18;51.54;100474.53;5025221;27;96888;-65
2023/08/25 03:47:19;;;;;;;6.43;4.47;;;;;;;27.15;51.58;100483.03;5024883;27;99323;-65
2023/08/25 03:49:46;;;;;;;8.27;4.85;;;;;;;27.30;51.47;100470.50;5032023;27;99615;-65
2023/08/25 03:52:13;;;;;;;7.03;4.68;;;;;;;27.24;51.44;100473.84;5024748;27;97309;-66
2023/08/25 03:54:39;;;;;;;7.93;4.07;;;;;;;27.24;51.48;100467.63;5022295;27;98548;-65
2023/08/25 03:57:08;;;;;;;7.93;4.38;;;;;;;27.25;51.59;100464.72;5022448;27;100952;-66
2023/08/25 03:59:37;;;;;;;7.75;4.22;;;;;;;27.24;51.45;100475.75;5031530;27;99415;-64
2023/08/25 04:02:04;;;;;;;9.35;4.30;;;;;;;27.12;52.00;100477.06;5024864;27;97202;-64
2023/08/25 04:04:32;;;;;;;10.13;4.32;;;;;;;27.37;51.00;100482.34;5031712;27;98643;-65
2023/08/25 04:06:58;;;;;;;12.10;4.25;;;;;;;27.29;51.96;100481.50;5028579;27;99276;-66
2023/08/25 04:09:25;;;;;;;4.18;3.70;;;;;;;27.52;51.90;100479.00;5023731;27;101813;-65
2023/08/25 04:11:54;;;;;;;6.80;4.22;;;;;;;27.14;53.09;100475.91;5027946;27;96853;-65
2023/08/25 04:14:23;;;;;;;8.40;4.60;;;;;;;27.26;53.09;100469.13;5023780;27;97568;-66
2023/08/25 04:16:49;;;;;;;17.55;4.43;;;;;;;27.23;52.77;100480.31;5027344;27;101442;-64
2023/08/25 04:19:16;;;;;;;7.50;4.20;;;;;;;27.44;51.81;100476.28;5030250;27;98722;-65
2023/08/25 04:21:43;;;;;;;6.85;4.90;;;;;;;27.30;52.40;100475.94;5028209;27;96825;-66
2023/08/25 04:24:10;;;;;;;6.40;4.20;;;;;;;27.36;52.88;100475.25;5026448;27;97034;-65
2023/08/25 04:26:36;;;;;;;13.57;5.05;;;;;;;26.95;54.12;100479.75;5028011;27;99264;-65
2023/08/25 04:29:04;;;;;;;10.35;4.88;;;;;;;27.30;53.29;100489.50;5025566;27;98793;-66
2023/08/25 04:31:31;;;;;;;10.27;4.35;;;;;;;27.26;53.98;100485.41;5028340;27;96820;-66
2023/08/25 04:33:58;;;;;;;8.55;4.40;;;;;;;27.24;53.78;100479.28;5026967;27;96875;-65
2023/08/25 04:36:24;;;;;;;7.53;4.72;;;;;;;27.31;53.25;100472.16;5024860;27;99362;-65
2023/08/25 04:38:51;;;;;;;10.07;4.68;;;;;;;27.26;53.16;100470.97;5021266;27;99399;-65
2023/08/25 04:41:17;;;;;;;8.95;5.07;;;;;;;27.48;52.38;100473.03;5026083;27;97082;-66
2023/08/25 04:43:43;;;;;;;8.38;4.22;;;;;;;27.27;52.53;100473.53;5024313;27;96880;-66
2023/08/25 04:46:11;;;;;;;6.63;4.60;;;;;;;27.34;52.70;100471.00;5027490;27;98881;-64
2023/08/25 04:48:43;;;;;;;8.23;4.90;;;;;;;27.38;52.31;100475.06;5028303;27;99248;-64
2023/08/25 04:51:09;;;;;;;9.30;5.10;;;;;;;27.50;51.90;100470.16;5029725;27;97168;-64
2023/08/25 04:53:35;;;;;;;9.82;4.85;;;;;;;27.54;51.63;100468.81;5027926;27;96911;-65
2023/08/25 04:56:02;;;;;;;7.35;4.28;;;;;;;27.60;51.62;100468.13;5022449;27;99604;-65
2023/08/25 04:58:32;;;;;;;10.85;4.57;;;;;;;27.49;51.62;100471.19;5025067;27;98746;-66
2023/08/25 05:01:03;;;;;;;12.07;4.75;;;;;;;27.54;51.89;100464.25;5027118;27;97107;-67
2023/08/25 05:03:32;;;;;;;11.20;6.05;;;;;;;27.92;50.18;100457.22;5028250;27;98459;-66
2023/08/25 05:06:01;;;;;;;10.80;4.72;;;;;;;27.66;50.89;100457.44;5022888;27;98245;-66
2023/08/25 05:08:27;;;;;;;8.35;4.30;;;;;;;27.77;50.46;100454.38;5024992;27;102176;-65
2023/08/25 05:10:54;;;;;;;10.23;4.53;;;;;;;27.70;50.30;100453.38;5026153;27;97864;-64
2023/08/25 05:13:23;;;;;;;8.77;4.32;;;;;;;27.47;50.80;100449.63;5024707;27;97993;-65
2023/08/25 05:15:49;;;;;;;10.05;4.35;;;;;;;27.50;51.31;100452.03;5022810;27;98091;-65
2023/08/25 05:18:16;;;;;;;7.45;5.07;;;;;;;27.40;51.32;100453.19;5026673;27;98699;-66
2023/08/25 05:20:42;;;;;;;9.93;4.88;;;;;;;27.62;50.88;100452.53;5024039;27;97064;-65
2023/08/25 05:23:10;;;;;;;6.78;4.30;;;;;;;27.82;50.33;100442.16;5023772;27;97826;-64
2023/08/25 05:25:38;;;;;;;17.92;5.07;;;;;;;27.87;49.68;100456.06;5026535;27;98896;-65
2023/08/25 05:28:05;;;;;;;6.40;4.40;;;;;;;28.03;49.51;100450.56;5026871;27;97774;-64
2023/08/25 05:30:31;;;;;;;14.55;4.68;;;;;;;27.91;49.46;100441.09;5024099;27;98239;-65
2023/08/25 05:32:58;;;;;;;8.93;5.25;;;;;;;28.30;48.29;100435.75;5027296;27;96937;-65
2023/08/25 05:35:24;;;;;;;10.50;4.72;;;;;;;28.34;48.20;100437.97;5026921;27;98331;-65
2023/08/25 05:37:51;;;;;;;11.15;4.43;;;;;;;28.58;47.54;100436.13;5019172;27;100692;-65
2023/08/25 05:40:18;;;;;;;10.90;4.55;;;;;;;28.36;48.06;100438.59;5021129;27;96785;-64
2023/08/25 05:42:45;;;;;;;9.88;4.97;;;;;;;28.17;48.86;100443.59;5019306;27;96846;-64
2023/08/25 05:45:11;;;;;;;7.78;4.50;;;;;;;28.14;49.21;100439.41;5023247;27;96932;-65
2023/08/25 05:47:38;;;;;;;8.32;4.53;;;;;;;28.02;49.65;100455.19;5021376;27;98935;-65
2023/08/25 05:50:05;;;;;;;8.63;4.78;;;;;;;27.90;49.90;100450.28;5027710;27;96921;-65
2023/08/25 05:52:31;;;;;;;11.13;4.32;;;;;;;27.90;49.77;100440.25;5026269;27;97064;-65
2023/08/25 05:54:57;;;;;;;11.15;5.57;;;;;;;28.16;49.61;100436.50;5027090;27;101486;-65
2023/08/25 05:57:26;;;;;;;17.20;5.32;;;;;;;28.37;48.92;100431.31;5025565;27;99296;-64
2023/08/25 05:59:52;;;;;;;15.35;5.35;;;;;;;28.28;48.79;100429.66;5022335;27;96853;-65
2023/08/25 06:02:19;;;;;;;6.13;4.85;;;;;;;28.36;48.82;100437.75;5024588;27;98990;-65
2023/08/25 06:04:45;;;;;;;15.93;4.80;;;;;;;28.49;48.47;100429.88;5024277;27;99084;-65
2023/08/25 06:07:12;;;;;;;15.30;5.50;;;;;;;28.52;47.80;100435.81;5018106;27;101353;-65
2023/08/25 06:09:38;;;;;;;9.13;5.65;;;;;;;28.74;47.57;100434.22;5023015;27;97673;-65
2023/08/25 06:12:05;;;;;;;10.18;5.40;;;;;;;29.04;46.97;100434.34;5027777;27;97122;-64
2023/08/25 06:14:35;;;;;;;7.82;5.05;;;;;;;28.82;47.05;100423.28;5024800;27;99079;-65
2023/08/25 06:17:01;;;;;;;9.10;5.32;;;;;;;28.95;47.29;100433.56;5026385;27;101212;-66
2023/08/25 06:19:28;;;;;;;12.23;5.07;;;;;;;29.17;45.92;100429.16;5030065;27;98043;-63
2023/08/25 06:21:55;;;;;;;8.70;5.10;;;;;;;29.32;45.36;100430.06;5031092;27;96847;-64
2023/08/25 06:24:21;;;;;;;6.15;5.00;;;;;;;29.16;46.25;100433.75;5030092;27;99493;-65
2023/08/25 06:26:47;;;;;;;15.52;5.00;;;;;;;29.11;46.62;100432.59;5020514;27;99500;-65
2023/08/25 06:29:14;;;;;;;7.90;4.28;;;;;;;29.06;45.74;100440.47;5029919;27;98441;-65
2023/08/25 06:31:42;;;;;;;10.60;5.30;;;;;;;29.53;44.75;100435.69;5025396;27;96981;-65
2023/08/25 06:34:08;;;;;;;10.32;4.38;;;;;;;29.79;43.75;100434.41;5023683;27;97943;-65
2023/08/25 06:36:35;;;;;;;7.57;4.50;;;;;;;30.14;43.12;100438.28;5022495;27;98867;-64
2023/08/25 06:39:01;;;;;;;6.30;4.28;;;;;;;30.02;43.04;100441.50;5028974;27;97649;-64
2023/08/25 06:41:28;;;;;;;9.13;5.47;;;;;;;30.00;43.09;100440.84;5029728;27;96953;-65
2023/08/25 06:43:57;;;;;;;9.32;4.68;;;;;;;30.22;42.66;100441.78;5028872;27;98712;-66
2023/08/25 06:46:23;;;;;;;8.00;4.43;;;;;;;30.10;42.55;100443.28;5024087;27;99862;-65
2023/08/25 06:48:51;;;;;;;7.57;4.90;;;;;;;30.13;42.60;100440.19;5023869;27;97043;-65
2023/08/25 06:51:17;;;;;;;6.35;4.18;;;;;;;29.93;42.67;100436.34;5030188;27;96848;-66
2023/08/25 06:53:44;;;;;;;8.30;4.13;;;;;;;30.37;42.14;100439.91;5027380;27;97943;-66
2023/08/25 06:56:10;;;;;;;9.52;4.78;;;;;;;30.46;42.33;100437.88;5031611;27;99156;-65
2023/08/25 06:58:37;;;;;;;15.27;5.45;;;;;;;30.71;41.58;100442.03;5030651;27;96856;-65
2023/08/25 07:01:04;;;;;;;9.48;4.55;;;;;;;30.60;41.88;100444.38;5024471;27;98428;-65
2023/08/25 07:03:30;;;;;;;13.65;5.13;;;;;;;30.77;40.80;100440.41;5025888;27;98946;-66
2023/08/25 07:05:58;;;;;;;10.30;4.47;;;;;;;30.61;40.61;100443.34;5029735;27;98880;-66
2023/08/25 07:08:25;;;;;;;13.20;4.80;;;;;;;30.60;40.97;100441.66;5032941;27;96787;-64
2023/08/25 07:10:52;;;;;;;10.93;5.10;;;;;;;30.73;41.15;100434.47;5024882;27;97262;-65
2023/08/25 07:13:19;;;;;;;12.98;5.47;;;;;;;31.33;39.35;100438.69;5028096;27;96962;-65
2023/08/25 07:15:45;;;;;;;6.97;4.60;;;;;;;31.00;39.55;100429.31;5027658;27;101951;-65
2023/08/25 07:18:12;;;;;;;9.60;5.53;;;;;;;31.13;39.83;100440.41;5030487;27;97082;-65
2023/08/25 07:20:38;;;;;;;7.00;4.63;;;;;;;31.20;39.51;100441.31;5028279;27;98705;-65
2023/08/25 07:23:06;;;;;;;11.23;4.82;;;;;;;30.84;39.95;100442.19;5024589;27;99104;-65
2023/08/25 07:25:32;;;;;;;6.78;5.03;;;;;;;31.30;39.96;100435.53;5028000;27;98907;-65
2023/08/25 07:27:59;;;;;;;10.05;5.00;;;;;;;31.25;39.42;100442.41;5029567;27;97809;-66
2023/08/25 07:30:25;;;;;;;13.25;5.13;;;;;;;30.84;40.09;100442.19;5017249;27;98422;-65
2023/08/25 07:32:51;;;;;;;8.52;4.60;;;;;;;30.77;40.83;100443.16;5023508;27;98919;-65
2023/08/25 07:35:18;;;;;;;11.45;4.75;;;;;;;31.11;40.38;100442.50;5026879;27;98409;-65
2023/08/25 07:37:44;;;;;;;7.22;4.60;;;;;;;31.31;39.70;100448.16;5028351;27;97280;-65
2023/08/25 07:40:13;;;;;;;8.07;4.57;;;;;;;31.67;39.27;100448.91;5027925;27;97433;-64
2023/08/25 07:42:40;;;;;;;7.15;4.63;;;;;;;32.20;38.13;100447.41;5028858;27;99010;-65
2023/08/25 07:45:08;;;;;;;10.57;4.30;;;;;;;32.64;37.47;100460.66;5029829;27;101006;-66
2023/08/25 07:47:35;;;;;;;8.27;4.22;;;;;;;32.86;35.75;100455.91;5025984;27;96890;-66
2023/08/25 07:50:03;;;;;;;8.20;4.55;;;;;;;33.05;35.20;100465.22;5021215;27;97279;-68
2023/08/25 07:52:29;;;;;;;9.20;4.80;;;;;;;32.97;35.10;100459.94;5027653;27;99964;-64
2023/08/25 07:54:58;;;;;;;10.57;4.10;;;;;;;33.14;34.92;100450.31;5025698;27;98314;-65
2023/08/25 07:57:27;;;;;;;14.02;4.60;;;;;;;33.17;34.66;100461.66;5021876;27;97602;-65
2023/08/25 07:59:54;;;;;;;5.90;4.63;;;;;;;32.84;35.24;100453.38;5021568;27;97739;-65
2023/08/25 08:02:20;;;;;;;10.05;4.47;;;;;;;32.80;35.41;100454.00;5020438;27;102096;-66
2023/08/25 08:04:47;;;;;;;12.73;4.88;;;;;;;33.03;35.07;100456.38;5021132;27;102191;-67
2023/08/25 08:07:13;;;;;;;8.05;4.15;;;;;;;32.57;35.18;100462.50;5023196;27;97012;-66
2023/08/25 08:09:40;;;;;;;7.63;4.20;;;;;;;32.55;35.51;100461.03;5028229;27;97247;-64
2023/08/25 08:12:07;;;;;;;11.85;4.70;;;;;;;33.08;35.03;100459.34;5023593;27;99904;-64
2023/08/25 08:14:36;;;;;;;9.32;4.63;;;;;;;33.00;34.96;100465.00;5026624;27;99430;-66
2023/08/25 08:17:03;;;;;;;5.82;4.22;;;;;;;32.63;35.80;100469.88;5026526;27;97855;-65
2023/08/25 08:19:30;;;;;;;8.02;4.00;;;;;;;33.07;35.15;100476.81;5027777;27;96831;-64
2023/08/25 08:21:57;;;;;;;15.02;4.22;;;;;;;33.30;34.76;100471.81;5025463;27;97928;-64
2023/08/25 08:24:23;;;;;;;8.75;4.78;;;;;;;33.45;34.68;100464.28;5022535;27;99284;-66
2023/08/25 08:26:50;;;;;;;7.32;4.15;;;;;;;33.38;34.16;100460.69;5020086;27;98554;-66
2023/08/25 08:29:16;;;;;;;9.45;3.88;;;;;;;33.26;34.50;100465.09;5028144;27;97545;-65
2023/08/25 08:31:46;;;;;;;6.47;3.85;;;;;;;32.56;35.53;100468.19;5020445;27;99212;-65
2023/08/25 08:34:12;;;;;;;5.72;3.85;;;;;;;33.38;34.33;100466.16;5019333;27;98843;-65
2023/08/25 08:36:39;;;;;;;8.10;3.83;;;;;;;33.53;34.37;100474.19;5022847;27;97364;-66
2023/08/25 08:39:06;;;;;;;11.02;4.15;;;;;;;33.15;34.63;100468.38;5025050;27;97018;-65
2023/08/25 08:41:32;;;;;;;8.45;3.90;;;;;;;32.75;35.35;100471.06;5020814;27;99537;-64
2023/08/25 08:44:01;;;;;;;7.05;3.85;;;;;;;32.77;35.40;100468.94;5026549;27;101347;-65
2023/08/25 08:46:34;;;;;;;8.32;4.65;;;;;;;33.00;34.82;100474.06;5022890;27;97749;-64
2023/08/25 08:49:03;;;;;;;7.88;3.88;;;;;;;33.21;34.86;100475.84;5022098;27;97781;-65
2023/08/25 08:51:31;;;;;;;6.45;3.97;;;;;;;33.48;34.94;100483.00;5025659;27;98327;-66
2023/08/25 08:54:06;;;;;;;6.07;3.90;;;;;;;33.56;33.95;100479.22;5025231;27;98751;-66
2023/08/25 08:56:33;;;;;;;5.28;3.53;;;;;;;33.66;34.12;100479.66;5023179;27;97861;-65
2023/08/25 08:59:01;;;;;;;4.05;3.50;;;;;;;33.42;33.98;100489.31;5026034;27;97351;-65
2023/08/25 09:01:28;;;;;;;13.50;3.58;;;;;;;33.14;34.88;100485.91;5026198;27;99516;-65
2023/08/25 09:04:00;;;;;;;5.55;4.38;;;;;;;33.47;34.31;100486.81;5021101;27;98476;-65
2023/08/25 09:06:35;;;;;;;9.32;3.58;;;;;;;33.55;33.88;100488.47;5019806;27;97919;-65
2023/08/25 09:09:04;;;;;;;5.53;3.38;;;;;;;33.71;33.84;100495.50;5024536;27;97467;-65
2023/08/25 09:11:31;;;;;;;6.60;3.50;;;;;;;33.91;33.71;100490.84;5022605;27;98939;-65
2023/08/25 09:13:57;;;;;;;7.20;3.80;;;;;;;33.74;33.50;100484.13;5024138;27;98642;-65
2023/08/25 09:16:25;;;;;;;7.88;3.45;;;;;;;33.43;33.90;100487.44;5021741;27;97357;-64
2023/08/25 09:18:52;;;;;;;7.80;3.50;;;;;;;33.50;34.03;100483.66;5021765;27;97110;-65
2023/08/25 09:21:21;;;;;;;8.88;3.63;;;;;;;33.51;34.41;100495.44;5022411;27;99917;-64
2023/08/25 09:23:57;;;;;;;10.30;4.20;;;;;;;33.32;34.77;100497.13;5020832;27;98944;-65
2023/08/25 09:26:24;;;;;;;10.25;4.13;;;;;;;33.22;34.14;100499.41;5023189;27;96907;-65
2023/08/25 09:28:53;;;;;;;9.40;3.50;;;;;;;33.45;33.84;100499.03;5019733;27;97941;-65
2023/08/25 09:31:24;;;;;;;5.80;3.65;;;;;;;33.74;33.37;100484.94;5026819;27;98260;-65
2023/08/25 09:33:51;;;;;;;7.63;3.50;;;;;;;34.11;33.40;100488.06;5023220;27;99425;-65
2023/08/25 09:36:18;;;;;;;4.60;3.20;;;;;;;34.03;33.60;100494.63;5021089;27;97069;-65
2023/08/25 09:38:46;;;;;;;7.82;3.58;;;;;;;33.78;33.27;100483.47;5017105;27;96790;-66
2023/08/25 09:41:23;;;;;;;10.10;4.40;;;;;;;34.39;32.76;100494.16;5021783;27;98919;-64
2023/08/25 09:43:49;;;;;;;4.20;3.70;;;;;;;34.68;32.98;100490.03;5025395;27;99640;-64
2023/08/25 09:46:16;;;;;;;9.70;3.80;;;;;;;34.33;33.06;100495.84;5021329;27;97479;-64
2023/08/25 09:48:45;;;;;;;7.53;3.80;;;;;;;34.55;32.46;100490.09;5031374;27;96959;-64
2023/08/25 09:51:11;;;;;;;12.45;3.80;;;;;;;34.57;32.58;100493.47;5027114;27;99083;-64
2023/08/25 09:53:39;;;;;;;9.52;3.42;;;;;;;34.64;32.52;100494.28;5029914;27;99680;-65
2023/08/25 09:56:06;;;;;;;6.97;3.50;;;;;;;34.39;32.93;100494.16;5028576;27;97558;-65
2023/08/25 09:58:35;;;;;;;11.07;3.67;;;;;;;34.02;33.29;100506.63;5023488;27;97791;-65
2023/08/25 10:01:02;;;;;;;5.63;3.63;;;;;;;34.18;32.86;100517.19;5021827;27;98974;-65
2023/08/25 10:03:29;;;;;;;5.47;3.53;;;;;;;33.96;33.27;100523.94;5028921;27;101395;-65
2023/08/25 10:05:56;;;;;;;3.95;3.13;;;;;;;33.66;34.50;100530.88;5022022;27;97697;-64
2023/08/25 10:08:23;;;;;;;6.60;3.00;;;;;;;33.70;34.70;100526.66;5029395;27;97717;-65
2023/08/25 10:10:50;;;;;;;3.60;2.50;;;;;;;33.95;34.14;100525.00;5022369;27;98884;-65
2023/08/25 10:13:19;;;;;;;4.22;3.00;;;;;;;34.08;34.02;100516.75;5023844;27;99029;-64
2023/08/25 10:15:48;;;;;;;4.50;3.15;;;;;;;34.10;33.92;100519.28;5022243;27;97933;-66
2023/08/25 10:18:14;;;;;;;10.15;3.35;;;;;;;34.51;33.45;100513.53;5022933;27;98527;-65
2023/08/25 10:20:43;;;;;;;7.57;3.13;;;;;;;34.43;33.52;100513.75;5021685;27;99493;-65
2023/08/25 10:23:11;;;;;;;3.17;2.78;;;;;;;34.49;34.08;100512.91;5024110;27;99094;-65
2023/08/25 10:25:37;;;;;;;7.45;3.50;;;;;;;34.40;34.22;100504.91;5026740;27;97439;-65
2023/08/25 10:28:06;;;;;;;5.90;3.42;;;;;;;34.21;34.25;100513.16;5024757;27;97366;-65
2023/08/25 10:30:34;;;;;;;5.78;3.60;;;;;;;34.34;33.88;100511.25;5026194;27;98965;-65
2023/08/25 10:33:04;;;;;;;8.50;3.17;;;;;;;34.40;34.39;100515.03;5028006;27;98839;-65
2023/08/25 10:35:41;;;;;;;5.10;3.00;;;;;;;34.28;34.58;100520.34;5029089;27;97202;-66
2023/08/25 10:38:35;;;;;;;3.70;2.40;;;;;;;34.19;33.23;100516.13;5021984;27;96754;-65
2023/08/25 10:41:13;;;;;;;5.47;2.38;;;;;;;34.03;33.03;100526.66;4995810;27;99564;-66
2023/08/25 10:43:39;;;;;;;6.20;2.85;;;;;;;33.79;33.17;100526.28;5021864;27;99477;-65
2023/08/25 10:46:07;;;;;;;10.02;7.68;;;;;;;34.00;33.26;100533.44;5019880;27;99394;-65
2023/08/25 10:48:35;;;;;;;6.78;5.50;;;;;;;34.07;33.52;100526.03;5021182;27;97423;-65
2023/08/25 10:51:09;;;;;;;7.97;4.68;;;;;;;33.92;33.49;100531.75;5017770;27;99811;-65
2023/08/25 10:53:37;;;;;;;4.53;3.08;;;;;;;34.09;33.48;100529.41;5026483;27;98969;-65
2023/08/25 10:56:22;;;;;;;7.82;3.03;;;;;;;34.22;33.66;100523.94;5029377;27;96810;-65
2023/08/25 10:58:55;;;;;;;5.22;2.83;;;;;;;34.04;33.53;100533.84;5024205;27;97765;-66
2023/08/25 11:01:28;;;;;;;7.60;4.45;;;;;;;34.11;33.82;100537.44;5023331;27;98974;-66
2023/08/25 11:04:06;;;;;;;6.55;3.67;;;;;;;33.97;34.31;100526.47;5029259;27;99020;-65
2023/08/25 11:06:44;;;;;;;13.60;5.70;;;;;;;34.08;34.23;100530.47;5028277;27;98385;-65
2023/08/25 11:09:30;;;;;;;9.15;5.47;;;;;;;33.90;34.64;100524.78;5026195;27;97072;-65
2023/08/25 11:11:58;;;;;;;5.50;3.42;;;;;;;33.74;35.00;100536.19;5021088;27;99138;-64
2023/08/25 11:14:28;;;;;;;6.50;3.10;;;;;;;33.76;35.22;100529.41;5025054;27;99194;-65
2023/08/25 11:16:54;;;;;;;5.82;3.00;;;;;;;33.65;35.32;100532.75;5027683;27;97439;-64
2023/08/25 11:19:23;;;;;;;7.90;3.13;;;;;;;33.96;35.37;100529.41;5026150;27;97661;-65
2023/08/25 11:21:56;;;;;;;6.00;3.22;;;;;;;33.55;35.95;100535.91;5021646;27;101726;-65
2023/08/25 11:24:23;;;;;;;14.77;6.28;;;;;;;33.63;36.27;100540.34;5020338;27;97577;-65
2023/08/25 11:26:50;;;;;;;7.03;3.30;;;;;;;33.78;36.63;100531.97;5021133;27;97346;-65